createdAt,value
2022-08-17T00:00:44.163Z,16.19
2022-08-17T00:01:51.889Z,16.40
2022-08-17T00:03:05.389Z,16.43
2022-08-17T00:04:13.830Z,16.43
2022-08-17T00:05:24.886Z,16.57
2022-08-17T00:06:33.493Z,16.66
2022-08-17T00:07:41.968Z,16.70
2022-08-17T00:08:54.354Z,16.62
2022-08-17T00:10:02.096Z,16.34
2022-08-17T00:11:12.495Z,16.37
2022-08-17T00:12:42.870Z,16.52
2022-08-17T00:13:52.158Z,16.77
2022-08-17T00:15:05.325Z,16.96
2022-08-17T00:16:56.156Z,16.87
2022-08-17T00:18:01.458Z,17.04
2022-08-17T00:19:11.533Z,17.48
2022-08-17T00:20:20.813Z,17.36
2022-08-17T00:22:33.039Z,17.35
2022-08-17T00:23:07.781Z,17.18
2022-08-17T00:24:15.209Z,17.25
2022-08-17T00:25:22.300Z,17.55
2022-08-17T00:26:34.590Z,17.77
2022-08-17T00:27:51.897Z,17.84
2022-08-17T00:29:02.039Z,17.87
2022-08-17T00:30:10.162Z,17.99
2022-08-17T00:31:17.553Z,17.85
2022-08-17T00:33:22.894Z,18.10
2022-08-17T00:33:52.490Z,18.31
2022-08-17T00:34:59.561Z,18.84
2022-08-17T00:36:10.704Z,19.29
2022-08-17T00:37:18.059Z,19.30
2022-08-17T00:38:25.384Z,19.40
2022-08-17T00:39:32.371Z,19.37
2022-08-17T00:40:50.274Z,19.41
2022-08-17T00:41:58.926Z,19.38
2022-08-17T00:43:20.686Z,19.57
2022-08-17T00:44:30.347Z,19.70
2022-08-17T00:45:38.892Z,19.49
2022-08-17T00:46:46.174Z,19.60
2022-08-17T00:47:53.112Z,19.54
2022-08-17T00:49:01.813Z,19.54
2022-08-17T00:50:11.744Z,19.53
2022-08-17T00:51:26.119Z,19.74
2022-08-17T00:52:39.293Z,19.96
2022-08-17T00:53:50.762Z,19.89
2022-08-17T00:54:59.292Z,19.85
2022-08-17T00:56:08.471Z,19.90
2022-08-17T00:57:25.843Z,20.23
2022-08-17T00:58:36.224Z,20.50
2022-08-17T00:59:55.996Z,20.28
2022-08-17T01:01:10.664Z,20.25
2022-08-17T01:02:17.609Z,20.31
2022-08-17T01:03:29.087Z,20.23
2022-08-17T01:04:36.088Z,20.36
2022-08-17T01:05:43.347Z,20.52
2022-08-17T01:06:52.365Z,20.49
2022-08-17T01:08:00.092Z,20.60
2022-08-17T01:09:07.247Z,20.55
2022-08-17T01:10:59.824Z,20.61
2022-08-17T01:11:42.693Z,20.67
2022-08-17T01:12:50.905Z,20.73
2022-08-17T01:13:58.451Z,20.72
2022-08-17T01:15:06.692Z,20.76
2022-08-17T01:16:28.393Z,20.96
2022-08-17T01:17:35.687Z,21.15
2022-08-17T01:18:43.608Z,21.16
2022-08-17T01:19:50.865Z,21.26
2022-08-17T01:20:59.268Z,21.35
2022-08-17T01:22:17.458Z,21.36
2022-08-17T01:23:25.784Z,21.37
2022-08-17T01:24:33.790Z,21.49
2022-08-17T01:25:41.640Z,21.67
2022-08-17T01:26:48.578Z,21.76
2022-08-17T01:27:56.170Z,21.91
2022-08-17T01:29:03.775Z,21.95
2022-08-17T01:30:57.852Z,22.01
2022-08-17T01:31:47.344Z,22.25
2022-08-17T01:32:54.744Z,22.57
2022-08-17T01:34:03.223Z,22.92
2022-08-17T01:35:10.731Z,23.08
2022-08-17T01:36:20.920Z,23.43
2022-08-17T01:37:35.922Z,23.54
2022-08-17T01:38:43.458Z,23.64
2022-08-17T01:39:56.457Z,23.62
2022-08-17T01:41:05.941Z,23.62
2022-08-17T01:42:42.180Z,23.73
2022-08-17T01:43:57.583Z,23.70
2022-08-17T01:45:24.314Z,23.72
2022-08-17T01:46:34.635Z,23.62
2022-08-17T01:47:43.204Z,23.65
2022-08-17T01:48:50.430Z,23.76
2022-08-17T01:49:58.003Z,23.81
2022-08-17T01:51:07.170Z,24.01
2022-08-17T01:52:14.296Z,24.05
2022-08-17T01:53:42.502Z,24.09
2022-08-17T01:54:49.495Z,23.97
2022-08-17T01:56:00.774Z,24.07
2022-08-17T01:57:08.449Z,24.16
2022-08-17T01:58:15.816Z,24.12
2022-08-17T01:59:23.097Z,24.19
2022-08-17T02:00:59.485Z,24.28
2022-08-17T02:01:58.028Z,24.46
2022-08-17T02:03:05.319Z,24.60
2022-08-17T02:04:12.932Z,24.67
2022-08-17T02:05:19.961Z,24.97
2022-08-17T02:06:28.336Z,25.06
2022-08-17T02:07:48.007Z,25.29
2022-08-17T02:09:06.539Z,25.54
2022-08-17T02:10:24.459Z,25.66
2022-08-17T02:11:41.582Z,25.93
2022-08-17T02:12:50.268Z,26.17
2022-08-17T02:14:02.485Z,26.23
2022-08-17T02:15:13.647Z,26.65
2022-08-17T02:16:23.828Z,26.97
2022-08-17T02:17:30.982Z,27.21
2022-08-17T02:18:39.600Z,27.64
2022-08-17T02:19:46.840Z,27.78
2022-08-17T02:20:54.339Z,28.12
2022-08-17T02:22:01.767Z,28.26
2022-08-17T02:23:10.285Z,28.58
2022-08-17T02:24:59.510Z,28.68
2022-08-17T02:25:50.168Z,28.56
2022-08-17T02:26:57.469Z,28.84
2022-08-17T02:28:06.178Z,28.98
2022-08-17T02:29:13.381Z,29.21
2022-08-17T02:31:00.667Z,29.16
2022-08-17T02:31:48.056Z,29.11
2022-08-17T02:32:55.779Z,29.73
2022-08-17T02:34:03.888Z,30.12
2022-08-17T02:35:12.002Z,30.17
2022-08-17T02:36:21.149Z,30.27
2022-08-17T02:37:31.476Z,30.35
2022-08-17T02:38:39.642Z,30.55
2022-08-17T02:39:47.416Z,30.85
2022-08-17T02:40:54.652Z,30.67
2022-08-17T02:42:05.582Z,30.34
2022-08-17T02:43:12.830Z,29.60
2022-08-17T02:44:39.010Z,29.37
2022-08-17T02:45:47.787Z,29.86
2022-08-17T02:46:54.885Z,30.05
2022-08-17T02:48:02.068Z,29.96
2022-08-17T02:49:09.953Z,29.35
2022-08-17T02:50:18.342Z,29.05
2022-08-17T02:51:25.865Z,28.99
2022-08-17T02:53:01.965Z,29.04
2022-08-17T02:54:41.608Z,28.74
2022-08-17T02:55:37.592Z,28.91
2022-08-17T02:56:45.032Z,28.90
2022-08-17T02:57:52.568Z,28.87
2022-08-17T02:59:00.260Z,29.15
2022-08-17T03:00:11.861Z,29.27
2022-08-17T03:01:19.000Z,29.30
2022-08-17T03:02:25.867Z,29.65
2022-08-17T03:03:33.122Z,29.81
2022-08-17T03:04:40.391Z,29.76
2022-08-17T03:05:49.831Z,30.00
2022-08-17T03:06:58.956Z,30.34
2022-08-17T03:08:11.677Z,30.36
2022-08-17T03:09:21.095Z,30.59
2022-08-17T03:10:28.096Z,31.77
2022-08-17T03:11:35.301Z,32.11
2022-08-17T03:12:43.455Z,32.32
2022-08-17T03:13:50.666Z,32.92
2022-08-17T03:14:57.627Z,33.34
2022-08-17T03:16:04.875Z,33.22
2022-08-17T03:17:17.161Z,33.59
2022-08-17T03:18:26.980Z,33.76
2022-08-17T03:19:34.470Z,34.18
2022-08-17T03:20:47.563Z,34.45
2022-08-17T03:21:55.550Z,34.55
2022-08-17T03:23:03.299Z,34.60
2022-08-17T03:24:10.892Z,34.62
2022-08-17T03:25:20.372Z,34.78
2022-08-17T03:26:30.500Z,34.82
2022-08-17T03:27:38.190Z,35.04
2022-08-17T03:28:50.099Z,35.31
2022-08-17T03:29:57.413Z,35.21
2022-08-17T03:31:04.627Z,35.28
2022-08-17T03:32:15.617Z,35.75
2022-08-17T03:33:23.033Z,35.84
2022-08-17T03:34:30.060Z,36.07
2022-08-17T03:35:42.958Z,36.22
2022-08-17T03:36:50.920Z,36.25
2022-08-17T03:38:00.647Z,36.43
2022-08-17T03:39:09.337Z,36.51
2022-08-17T03:40:18.501Z,36.58
2022-08-17T03:41:47.130Z,36.76
2022-08-17T03:42:56.064Z,36.80
2022-08-17T03:44:04.403Z,36.85
2022-08-17T03:45:40.311Z,37.09
2022-08-17T03:47:08.460Z,37.03
2022-08-17T03:48:34.175Z,37.10
2022-08-17T03:50:00.848Z,37.34
2022-08-17T03:51:37.992Z,37.42
2022-08-17T03:53:04.666Z,37.64
2022-08-17T03:54:31.789Z,38.06
2022-08-17T03:56:03.183Z,38.38
2022-08-17T03:57:32.798Z,38.61
2022-08-17T03:58:43.542Z,38.75
2022-08-17T03:59:52.030Z,38.73
2022-08-17T04:01:01.616Z,39.02
2022-08-17T04:02:16.296Z,39.15
2022-08-17T04:03:23.758Z,39.30
2022-08-17T04:04:33.766Z,39.47
2022-08-17T04:05:41.336Z,39.82
2022-08-17T04:06:48.634Z,39.79
2022-08-17T04:07:55.216Z,39.95
2022-08-17T04:09:02.469Z,40.22
2022-08-17T04:10:10.091Z,40.17
2022-08-17T04:11:17.359Z,40.20
2022-08-17T04:12:25.010Z,40.36
2022-08-17T04:13:32.068Z,40.45
2022-08-17T04:14:53.382Z,40.59
2022-08-17T04:16:03.703Z,40.96
2022-08-17T04:17:13.208Z,40.98
2022-08-17T04:18:21.453Z,41.12
2022-08-17T04:19:29.186Z,41.36
2022-08-17T04:20:36.781Z,41.52
2022-08-17T04:21:45.145Z,41.36
2022-08-17T04:23:13.545Z,41.38
2022-08-17T04:24:21.568Z,41.92
2022-08-17T04:25:29.692Z,41.83
2022-08-17T04:26:53.972Z,41.86
2022-08-17T04:28:04.095Z,42.03
2022-08-17T04:29:16.044Z,42.32
2022-08-17T04:30:24.462Z,42.38
2022-08-17T04:31:33.694Z,42.35
2022-08-17T04:33:06.019Z,42.47
2022-08-17T04:34:15.790Z,42.62
2022-08-17T04:35:30.184Z,42.83
2022-08-17T04:36:40.361Z,43.05
2022-08-17T04:37:58.450Z,43.01
2022-08-17T04:39:07.122Z,43.02
2022-08-17T04:40:47.653Z,43.07
2022-08-17T04:42:18.807Z,43.05
2022-08-17T04:43:27.895Z,43.28
2022-08-17T04:44:37.661Z,43.31
2022-08-17T04:45:55.632Z,43.56
2022-08-17T04:47:05.798Z,43.49
2022-08-17T04:48:13.718Z,43.60
2022-08-17T04:49:22.174Z,43.70
2022-08-17T04:50:30.238Z,43.79
2022-08-17T04:51:45.481Z,43.78
2022-08-17T04:53:03.968Z,43.96
2022-08-17T04:54:15.109Z,44.06
2022-08-17T04:55:23.483Z,43.97
2022-08-17T04:56:30.643Z,44.19
2022-08-17T04:57:41.810Z,44.07
2022-08-17T04:58:54.377Z,44.22
2022-08-17T05:00:02.816Z,44.28
2022-08-17T05:01:11.912Z,44.44
2022-08-17T05:02:20.964Z,44.40
2022-08-17T05:03:28.436Z,44.41
2022-08-17T05:04:36.087Z,44.47
2022-08-17T05:05:51.625Z,44.65
2022-08-17T05:07:00.611Z,44.82
2022-08-17T05:08:09.527Z,44.94
2022-08-17T05:09:19.622Z,45.07
2022-08-17T05:10:28.462Z,45.17
2022-08-17T05:11:35.942Z,45.35
2022-08-17T05:12:44.174Z,45.24
2022-08-17T05:13:53.213Z,45.23
2022-08-17T05:15:01.948Z,45.18
2022-08-17T05:16:10.756Z,45.11
2022-08-17T05:17:18.990Z,45.09
2022-08-17T05:18:27.085Z,45.16
2022-08-17T05:19:34.992Z,45.08
2022-08-17T05:20:45.457Z,45.34
2022-08-17T05:21:54.198Z,45.37
2022-08-17T05:23:05.926Z,45.60
2022-08-17T05:24:41.251Z,45.73
2022-08-17T05:25:50.387Z,45.75
2022-08-17T05:27:06.022Z,46.02
2022-08-17T05:28:16.020Z,46.01
2022-08-17T05:29:35.334Z,46.11
2022-08-17T05:30:44.542Z,46.05
2022-08-17T05:31:52.565Z,45.88
2022-08-17T05:33:07.478Z,46.08
2022-08-17T05:34:15.555Z,46.29
2022-08-17T05:35:23.775Z,46.31
2022-08-17T05:36:43.660Z,46.20
2022-08-17T05:37:52.902Z,46.28
2022-08-17T05:39:01.553Z,46.25
2022-08-17T05:40:11.683Z,46.20
2022-08-17T05:41:20.256Z,46.38
2022-08-17T05:42:28.388Z,46.35
2022-08-17T05:43:38.168Z,46.39
2022-08-17T05:44:45.678Z,46.64
2022-08-17T05:46:06.329Z,46.78
2022-08-17T05:47:14.819Z,46.80
2022-08-17T05:48:36.741Z,46.80
2022-08-17T05:49:49.325Z,46.76
2022-08-17T05:51:07.094Z,46.79
2022-08-17T05:52:36.608Z,46.71
2022-08-17T05:54:01.032Z,46.37
2022-08-17T05:55:18.475Z,46.31
2022-08-17T05:56:48.138Z,46.35
2022-08-17T05:58:01.511Z,46.60
2022-08-17T05:59:12.895Z,46.79
2022-08-17T06:00:30.397Z,46.76
2022-08-17T06:02:15.066Z,46.76
2022-08-17T06:03:29.207Z,47.03
2022-08-17T06:04:47.174Z,47.18
2022-08-17T06:06:16.884Z,47.04
2022-08-17T06:07:26.583Z,47.05
2022-08-17T06:08:53.457Z,47.15
2022-08-17T06:10:08.624Z,47.26
2022-08-17T06:11:30.430Z,47.41
2022-08-17T06:13:12.782Z,47.43
2022-08-17T06:14:32.475Z,47.42
2022-08-17T06:15:57.456Z,47.49
2022-08-17T06:17:11.263Z,47.40
2022-08-17T06:18:19.250Z,47.66
2022-08-17T06:19:50.354Z,47.95
2022-08-17T06:21:06.185Z,47.92
2022-08-17T06:22:16.623Z,47.96
2022-08-17T06:23:31.814Z,47.98
2022-08-17T06:25:27.882Z,47.86
2022-08-17T06:26:42.746Z,47.48
2022-08-17T06:27:57.405Z,47.34
2022-08-17T06:29:26.562Z,46.98
2022-08-17T06:30:59.294Z,46.56
2022-08-17T06:32:10.196Z,46.50
2022-08-17T06:33:26.358Z,46.36
2022-08-17T06:34:35.278Z,46.21
2022-08-17T06:36:17.289Z,46.13
2022-08-17T06:37:43.012Z,46.00
2022-08-17T06:39:10.510Z,45.82
2022-08-17T06:40:18.616Z,45.71
2022-08-17T06:41:54.205Z,45.62
2022-08-17T06:43:08.426Z,45.69
2022-08-17T06:44:43.551Z,45.91
2022-08-17T06:46:01.584Z,45.79
2022-08-17T06:47:28.931Z,45.73
2022-08-17T06:48:59.179Z,45.87
2022-08-17T06:50:10.659Z,46.00
2022-08-17T06:51:33.190Z,46.30
2022-08-17T06:53:22.185Z,46.20
2022-08-17T06:54:57.216Z,46.41
2022-08-17T06:56:10.313Z,46.75
2022-08-17T06:57:22.622Z,46.97
2022-08-17T06:58:33.599Z,46.84
2022-08-17T07:00:03.190Z,46.91
2022-08-17T07:01:17.869Z,47.04
2022-08-17T07:02:53.196Z,47.47
2022-08-17T07:04:20.175Z,47.96
2022-08-17T07:05:46.326Z,48.16
2022-08-17T07:07:39.642Z,48.24
2022-08-17T07:08:58.425Z,48.31
2022-08-17T07:10:09.295Z,48.63
2022-08-17T07:11:23.427Z,48.59
2022-08-17T07:12:39.324Z,48.45
2022-08-17T07:14:13.953Z,48.51
2022-08-17T07:15:30.374Z,48.70
2022-08-17T07:16:42.704Z,48.49
2022-08-17T07:17:50.523Z,48.69
2022-08-17T07:18:58.874Z,48.53
2022-08-17T07:20:10.682Z,48.31
2022-08-17T07:21:51.475Z,48.11
2022-08-17T07:23:02.827Z,47.69
2022-08-17T07:24:29.670Z,47.45
2022-08-17T07:25:38.510Z,47.20
2022-08-17T07:26:51.396Z,47.09
2022-08-17T07:28:02.366Z,47.07
2022-08-17T07:29:15.843Z,47.58
2022-08-17T07:30:28.233Z,47.68
2022-08-17T07:31:35.272Z,47.99
2022-08-17T07:33:03.534Z,48.44
2022-08-17T07:34:15.882Z,48.77
2022-08-17T07:35:40.841Z,48.85
2022-08-17T07:36:55.574Z,49.17
2022-08-17T07:38:24.234Z,49.14
2022-08-17T07:39:33.586Z,49.24
2022-08-17T07:40:46.997Z,49.10
2022-08-17T07:41:58.957Z,49.14
2022-08-17T07:43:08.641Z,49.55
2022-08-17T07:44:21.756Z,49.81
2022-08-17T07:45:47.205Z,49.54
2022-08-17T07:47:14.524Z,49.52
2022-08-17T07:48:28.804Z,49.50
2022-08-17T07:49:41.494Z,49.54
2022-08-17T07:50:49.600Z,49.53
2022-08-17T07:52:00.472Z,49.53
2022-08-17T07:53:28.474Z,49.79
2022-08-17T07:54:39.712Z,50.00
2022-08-17T07:55:46.874Z,49.92
2022-08-17T07:57:21.303Z,49.88
2022-08-17T07:58:28.342Z,49.95
2022-08-17T07:59:39.356Z,49.95
2022-08-17T08:01:11.294Z,49.75
2022-08-17T08:02:35.796Z,49.67
2022-08-17T08:03:44.293Z,49.69
2022-08-17T08:05:01.863Z,49.95
2022-08-17T08:06:23.553Z,50.05
2022-08-17T08:07:37.430Z,50.10
2022-08-17T08:08:44.517Z,50.10
2022-08-17T08:10:11.382Z,50.08
2022-08-17T08:11:30.381Z,50.13
2022-08-17T08:12:47.172Z,50.60
2022-08-17T08:13:54.183Z,50.60
2022-08-17T08:15:16.753Z,50.40
2022-08-17T08:16:30.409Z,50.62
2022-08-17T08:17:47.544Z,50.91
2022-08-17T08:18:59.721Z,50.98
2022-08-17T08:20:37.874Z,50.74
2022-08-17T08:21:52.184Z,50.74
2022-08-17T08:23:21.348Z,51.11
2022-08-17T08:24:38.324Z,51.61
2022-08-17T08:26:18.586Z,51.95
2022-08-17T08:27:47.448Z,52.25
2022-08-17T08:29:24.813Z,52.39
2022-08-17T08:30:33.669Z,52.45
2022-08-17T08:32:18.783Z,52.60
2022-08-17T08:33:39.505Z,52.70
2022-08-17T08:35:11.701Z,52.56
2022-08-17T08:36:57.108Z,53.17
2022-08-17T08:38:42.134Z,53.35
2022-08-17T08:40:12.231Z,53.32
2022-08-17T08:41:37.390Z,53.46
2022-08-17T08:42:54.873Z,53.21
2022-08-17T08:44:11.292Z,53.22
2022-08-17T08:45:23.134Z,53.38
2022-08-17T08:47:01.510Z,53.52
2022-08-17T08:48:56.550Z,54.05
2022-08-17T08:50:37.745Z,54.48
2022-08-17T08:51:49.145Z,54.24
2022-08-17T08:53:24.924Z,54.55
2022-08-17T08:54:41.386Z,54.48
2022-08-17T08:56:02.336Z,54.30
2022-08-17T08:57:29.007Z,54.32
2022-08-17T08:59:03.224Z,54.46
2022-08-17T09:00:18.451Z,54.50
2022-08-17T09:01:47.770Z,54.66
2022-08-17T09:03:13.108Z,54.67
2022-08-17T09:05:13.003Z,54.37
2022-08-17T09:06:37.431Z,54.28
2022-08-17T09:07:59.788Z,54.31
2022-08-17T09:09:28.456Z,54.16
2022-08-17T09:11:04.198Z,54.13
2022-08-17T09:12:34.968Z,54.16
2022-08-17T09:13:46.436Z,54.10
2022-08-17T09:15:24.398Z,54.02
2022-08-17T09:16:44.747Z,54.07
2022-08-17T09:19:01.517Z,54.03
2022-08-17T09:20:14.477Z,54.11
2022-08-17T09:21:48.030Z,53.97
2022-08-17T09:23:11.099Z,54.02
2022-08-17T09:24:35.121Z,54.23
2022-08-17T09:25:53.817Z,54.23
2022-08-17T09:27:15.127Z,54.11
2022-08-17T09:28:25.489Z,53.98
2022-08-17T09:29:36.249Z,53.88
2022-08-17T09:30:48.138Z,53.84
2022-08-17T09:32:06.649Z,53.68
2022-08-17T09:33:14.930Z,53.64
2022-08-17T09:34:48.438Z,53.80
2022-08-17T09:36:34.868Z,54.02
2022-08-17T09:38:14.129Z,54.04
2022-08-17T09:39:32.896Z,54.06
2022-08-17T09:41:06.160Z,54.07
2022-08-17T09:42:16.380Z,53.97
2022-08-17T09:43:46.600Z,54.04
2022-08-17T09:45:05.760Z,53.98
2022-08-17T09:46:20.369Z,53.92
2022-08-17T09:47:27.819Z,53.68
2022-08-17T09:48:49.490Z,53.74
2022-08-17T09:50:12.889Z,53.64
2022-08-17T09:51:31.700Z,53.63
2022-08-17T09:52:38.709Z,53.53
2022-08-17T09:53:46.028Z,53.35
2022-08-17T09:54:54.627Z,53.34
2022-08-17T09:56:25.499Z,53.26
2022-08-17T09:58:13.209Z,53.23
2022-08-17T09:59:38.159Z,53.18
2022-08-17T10:00:50.544Z,53.36
2022-08-17T10:02:20.070Z,53.39
2022-08-17T10:03:57.425Z,53.35
2022-08-17T10:05:23.189Z,53.49
2022-08-17T10:06:33.061Z,53.61
2022-08-17T10:07:48.204Z,53.68
2022-08-17T10:09:09.901Z,53.73
2022-08-17T10:10:38.696Z,54.01
2022-08-17T10:12:33.528Z,54.04
2022-08-17T10:13:52.763Z,53.83
2022-08-17T10:15:09.426Z,53.90
2022-08-17T10:16:34.983Z,53.98
2022-08-17T10:18:08.981Z,54.04
2022-08-17T10:19:25.973Z,54.16
2022-08-17T10:21:17.002Z,54.04
2022-08-17T10:23:07.377Z,54.36
2022-08-17T10:25:20.879Z,54.29
2022-08-17T10:26:26.163Z,54.29
2022-08-17T10:27:45.199Z,54.28
2022-08-17T10:29:08.352Z,54.51
2022-08-17T10:30:15.695Z,54.86
2022-08-17T10:31:34.732Z,55.24
2022-08-17T10:32:51.783Z,55.46
2022-08-17T10:34:27.132Z,55.56
2022-08-17T10:35:35.239Z,55.50
2022-08-17T10:36:51.232Z,55.33
2022-08-17T10:38:35.181Z,55.43
2022-08-17T10:40:24.837Z,55.45
2022-08-17T10:41:44.997Z,55.37
2022-08-17T10:43:30.611Z,55.42
2022-08-17T10:44:57.851Z,55.50
2022-08-17T10:46:34.830Z,55.29
2022-08-17T10:48:05.043Z,55.75
2022-08-17T10:49:24.099Z,56.51
2022-08-17T10:50:57.450Z,56.57
2022-08-17T10:52:25.216Z,56.31
2022-08-17T10:53:35.370Z,56.04
2022-08-17T10:54:50.073Z,56.10
2022-08-17T10:56:15.862Z,56.34
2022-08-17T10:57:29.004Z,56.38
2022-08-17T10:58:56.066Z,56.62
2022-08-17T11:00:27.542Z,56.51
2022-08-17T11:01:41.432Z,56.70
2022-08-17T11:02:57.518Z,57.11
2022-08-17T11:04:20.083Z,57.09
2022-08-17T11:05:34.713Z,57.06
2022-08-17T11:07:03.422Z,57.11
2022-08-17T11:08:11.788Z,57.16
2022-08-17T11:09:28.965Z,57.12
2022-08-17T11:10:51.839Z,57.10
2022-08-17T11:12:17.681Z,56.97
2022-08-17T11:13:32.543Z,57.02
2022-08-17T11:15:03.483Z,56.94
2022-08-17T11:16:36.603Z,56.89
2022-08-17T11:18:20.959Z,57.06
2022-08-17T11:19:50.028Z,56.72
2022-08-17T11:21:01.493Z,56.54
2022-08-17T11:22:14.133Z,56.51
2022-08-17T11:23:56.230Z,56.39
2022-08-17T11:25:19.193Z,56.35
2022-08-17T11:26:28.636Z,56.28
2022-08-17T11:27:36.260Z,56.29
2022-08-17T11:28:52.567Z,56.26
2022-08-17T11:30:02.909Z,56.25
2022-08-17T11:31:12.063Z,56.37
2022-08-17T11:32:47.739Z,56.54
2022-08-17T11:33:59.060Z,56.54
2022-08-17T11:35:38.093Z,57.11
2022-08-17T11:37:13.492Z,57.61
2022-08-17T11:38:28.420Z,57.94
2022-08-17T11:39:57.132Z,58.14
2022-08-17T11:41:29.104Z,58.37
2022-08-17T11:42:48.632Z,58.61
2022-08-17T11:44:08.233Z,58.67
2022-08-17T11:45:32.108Z,58.80
2022-08-17T11:47:18.792Z,58.83
2022-08-17T11:48:56.591Z,59.03
2022-08-17T11:50:48.664Z,59.19
2022-08-17T11:51:58.002Z,59.48
2022-08-17T11:53:06.843Z,59.74
2022-08-17T11:54:37.352Z,59.55
2022-08-17T11:55:45.056Z,59.23
2022-08-17T11:56:52.911Z,59.18
2022-08-17T11:58:02.951Z,59.07
2022-08-17T11:59:40.672Z,59.04
2022-08-17T12:00:48.002Z,59.15
2022-08-17T12:01:56.911Z,59.36
2022-08-17T12:03:33.500Z,59.15
2022-08-17T12:04:40.788Z,59.55
2022-08-17T12:05:48.632Z,59.74
2022-08-17T12:07:28.173Z,59.71
2022-08-17T12:08:35.643Z,59.86
2022-08-17T12:09:44.742Z,60.22
2022-08-17T12:12:11.350Z,60.62
2022-08-17T12:12:50.778Z,60.72
2022-08-17T12:13:59.676Z,60.60
2022-08-17T12:15:10.937Z,60.49
2022-08-17T12:16:20.239Z,60.47
2022-08-17T12:17:39.556Z,60.63
2022-08-17T12:18:59.861Z,60.75
2022-08-17T12:20:14.640Z,60.88
2022-08-17T12:21:46.602Z,61.03
2022-08-17T12:23:02.756Z,61.10
2022-08-17T12:24:19.552Z,61.26
2022-08-17T12:25:52.585Z,61.18
2022-08-17T12:27:02.174Z,60.97
2022-08-17T12:28:33.351Z,60.96
2022-08-17T12:29:43.741Z,60.70
2022-08-17T12:30:52.422Z,60.84
2022-08-17T12:32:00.686Z,61.26
2022-08-17T12:33:25.750Z,61.90
2022-08-17T12:34:41.960Z,62.21
2022-08-17T12:35:49.833Z,62.51
2022-08-17T12:37:03.502Z,62.49
2022-08-17T12:38:30.386Z,62.27
2022-08-17T12:39:41.851Z,61.92
2022-08-17T12:40:58.208Z,61.92
2022-08-17T12:42:06.784Z,62.68
2022-08-17T12:43:28.683Z,62.81
2022-08-17T12:44:46.119Z,62.98
2022-08-17T12:46:13.455Z,63.00
2022-08-17T12:47:23.838Z,63.75
2022-08-17T12:48:33.309Z,64.04
2022-08-17T12:49:43.917Z,64.19
2022-08-17T12:50:51.875Z,64.45
2022-08-17T12:52:24.625Z,64.82
2022-08-17T12:53:34.093Z,64.98
2022-08-17T12:55:04.345Z,64.99
2022-08-17T12:56:13.744Z,65.05
2022-08-17T12:57:41.616Z,65.24
2022-08-17T12:58:56.972Z,65.27
2022-08-17T13:00:47.518Z,65.19
2022-08-17T13:01:55.532Z,64.88
2022-08-17T13:03:18.625Z,64.97
2022-08-17T13:04:29.634Z,64.62
2022-08-17T13:05:39.832Z,64.78
2022-08-17T13:06:52.665Z,65.04
2022-08-17T13:08:29.905Z,65.10
2022-08-17T13:09:40.269Z,65.21
2022-08-17T13:11:06.286Z,65.08
2022-08-17T13:12:14.689Z,65.04
2022-08-17T13:13:26.658Z,64.99
2022-08-17T13:14:35.023Z,65.23
2022-08-17T13:15:54.047Z,65.08
2022-08-17T13:17:02.788Z,64.94
2022-08-17T13:18:30.016Z,64.80
2022-08-17T13:19:41.529Z,64.73
2022-08-17T13:20:55.270Z,64.71
2022-08-17T13:22:04.687Z,64.84
2022-08-17T13:23:15.199Z,64.84
2022-08-17T13:24:26.547Z,65.15
2022-08-17T13:25:34.046Z,65.48
2022-08-17T13:26:44.955Z,65.56
2022-08-17T13:27:54.816Z,65.79
2022-08-17T13:29:03.503Z,65.75
2022-08-17T13:30:13.735Z,65.45
2022-08-17T13:31:31.636Z,65.46
2022-08-17T13:32:44.029Z,65.30
2022-08-17T13:33:53.110Z,64.64
2022-08-17T13:35:16.269Z,64.09
2022-08-17T13:36:36.865Z,63.70
2022-08-17T13:38:00.635Z,63.28
2022-08-17T13:39:10.754Z,62.85
2022-08-17T13:40:21.872Z,62.93
2022-08-17T13:41:38.090Z,63.16
2022-08-17T13:42:51.935Z,63.19
2022-08-17T13:44:02.234Z,62.84
2022-08-17T13:45:36.578Z,62.36
2022-08-17T13:46:56.983Z,61.59
2022-08-17T13:48:30.290Z,60.96
2022-08-17T13:49:48.325Z,60.45
2022-08-17T13:50:58.075Z,59.62
2022-08-17T13:52:07.072Z,59.15
2022-08-17T13:53:31.189Z,58.54
2022-08-17T13:54:40.568Z,57.85
2022-08-17T13:55:53.586Z,57.29
2022-08-17T13:57:22.852Z,56.83
2022-08-17T13:58:41.264Z,56.37
2022-08-17T13:59:54.867Z,56.32
2022-08-17T14:01:37.072Z,56.45
2022-08-17T14:02:45.257Z,56.56
2022-08-17T14:03:53.584Z,56.59
2022-08-17T14:05:06.199Z,56.84
2022-08-17T14:06:52.477Z,56.69
2022-08-17T14:07:45.595Z,56.37
2022-08-17T14:08:54.043Z,56.04
2022-08-17T14:10:05.382Z,55.55
2022-08-17T14:11:14.217Z,54.51
2022-08-17T14:12:23.374Z,53.54
2022-08-17T14:13:31.515Z,52.63
2022-08-17T14:14:44.470Z,51.87
2022-08-17T14:15:54.738Z,50.74
2022-08-17T14:17:04.806Z,50.19
2022-08-17T14:18:12.471Z,49.73
2022-08-17T14:19:21.015Z,48.84
2022-08-17T14:20:29.492Z,48.17
2022-08-17T14:21:37.525Z,47.55
2022-08-17T14:22:47.095Z,47.13
2022-08-17T14:23:55.218Z,46.64
2022-08-17T14:25:03.491Z,46.15
2022-08-17T14:26:11.998Z,46.05
2022-08-17T14:27:21.175Z,45.74
2022-08-17T14:28:29.205Z,45.07
2022-08-17T14:29:37.505Z,45.02
2022-08-17T14:30:45.437Z,44.45
2022-08-17T14:31:54.612Z,43.57
2022-08-17T14:33:03.469Z,42.85
2022-08-17T14:34:15.466Z,43.12
2022-08-17T14:35:25.736Z,42.76
2022-08-17T14:36:33.857Z,42.28
2022-08-17T14:37:41.356Z,42.20
2022-08-17T14:38:49.430Z,41.97
2022-08-17T14:40:01.743Z,41.62
2022-08-17T14:41:10.081Z,41.81
2022-08-17T14:42:19.014Z,40.86
2022-08-17T14:43:27.266Z,40.78
2022-08-17T14:44:35.564Z,40.77
2022-08-17T14:45:43.996Z,40.48
2022-08-17T14:46:52.553Z,40.21
2022-08-17T14:48:00.939Z,40.22
2022-08-17T14:49:10.090Z,40.26
2022-08-17T14:50:23.538Z,39.90
2022-08-17T14:51:31.836Z,39.73
2022-08-17T14:52:42.276Z,39.68
2022-08-17T14:53:50.750Z,39.69
2022-08-17T14:54:58.367Z,39.00
2022-08-17T14:56:07.030Z,38.90
2022-08-17T14:57:33.009Z,39.01
2022-08-17T14:58:44.936Z,38.95
2022-08-17T14:59:57.694Z,38.32
2022-08-17T15:01:08.896Z,38.11
2022-08-17T15:02:19.748Z,37.91
2022-08-17T15:03:27.337Z,37.08
2022-08-17T15:04:34.519Z,37.06
2022-08-17T15:05:42.662Z,36.49
2022-08-17T15:06:50.417Z,36.13
2022-08-17T15:07:58.155Z,35.88
2022-08-17T15:09:05.854Z,36.10
2022-08-17T15:10:15.362Z,35.80
2022-08-17T15:11:23.507Z,35.87
2022-08-17T15:12:34.229Z,36.06
2022-08-17T15:13:51.954Z,36.16
2022-08-17T15:15:04.771Z,36.30
2022-08-17T15:16:16.019Z,35.94
2022-08-17T15:17:25.421Z,36.06
2022-08-17T15:18:54.062Z,35.93
2022-08-17T15:20:01.574Z,35.85
2022-08-17T15:21:11.595Z,35.39
2022-08-17T15:22:25.945Z,35.31
2022-08-17T15:23:36.638Z,35.34
2022-08-17T15:24:44.530Z,35.23
2022-08-17T15:25:52.617Z,34.93
2022-08-17T15:27:01.105Z,34.69
2022-08-17T15:28:09.136Z,34.43
2022-08-17T15:29:17.893Z,34.31
2022-08-17T15:30:27.077Z,34.35
2022-08-17T15:31:34.704Z,34.09
2022-08-17T15:32:47.521Z,34.26
2022-08-17T15:34:00.279Z,34.31
2022-08-17T15:35:09.305Z,33.84
2022-08-17T15:36:17.910Z,33.68
2022-08-17T15:37:27.071Z,33.81
2022-08-17T15:38:40.657Z,33.32
2022-08-17T15:39:52.615Z,32.84
2022-08-17T15:41:01.100Z,32.59
2022-08-17T15:42:10.226Z,32.69
2022-08-17T15:43:27.291Z,32.15
2022-08-17T15:44:35.770Z,32.25
2022-08-17T15:45:44.266Z,32.45
2022-08-17T15:46:52.176Z,32.26
2022-08-17T15:47:59.987Z,31.93
2022-08-17T15:49:07.866Z,31.93
2022-08-17T15:50:16.166Z,31.91
2022-08-17T15:51:26.457Z,31.41
2022-08-17T15:52:37.268Z,31.37
2022-08-17T15:53:54.839Z,31.29
2022-08-17T15:55:03.468Z,30.77
2022-08-17T15:56:11.428Z,30.54
2022-08-17T15:57:20.322Z,30.62
2022-08-17T15:58:33.596Z,30.63
2022-08-17T15:59:43.362Z,30.29
2022-08-17T16:01:14.349Z,30.08
2022-08-17T16:03:20.362Z,29.60
2022-08-17T16:04:29.722Z,29.19
2022-08-17T16:05:38.023Z,29.00
2022-08-17T16:06:48.786Z,28.92
2022-08-17T16:07:57.418Z,28.12
2022-08-17T16:09:05.570Z,27.38
2022-08-17T16:10:18.663Z,27.35
2022-08-17T16:11:28.309Z,27.79
2022-08-17T16:12:36.949Z,27.89
2022-08-17T16:13:51.293Z,27.79
2022-08-17T16:15:04.936Z,27.66
2022-08-17T16:16:13.111Z,27.72
2022-08-17T16:17:40.206Z,27.28
2022-08-17T16:18:54.705Z,27.36
2022-08-17T16:20:08.789Z,27.45
2022-08-17T16:21:28.325Z,27.60
2022-08-17T16:22:38.640Z,27.30